createdAt,value
2017-06-27T00:06:10.280Z,0
2017-06-27T00:16:20.343Z,0
2017-06-27T00:26:30.447Z,0
2017-06-27T00:36:40.514Z,0
2017-06-27T00:46:50.615Z,0
2017-06-27T00:57:00.735Z,0
2017-06-27T01:07:10.848Z,0
2017-06-27T01:17:20.980Z,0
2017-06-27T01:27:31.096Z,0
2017-06-27T01:37:41.234Z,0
2017-06-27T01:47:51.395Z,0
2017-06-27T01:58:01.469Z,0
2017-06-27T02:08:11.674Z,0
2017-06-27T02:18:21.603Z,0
2017-06-27T02:28:31.820Z,0
2017-06-27T02:38:42.013Z,0
2017-06-27T02:48:52.181Z,0
2017-06-27T02:59:02.387Z,5
2017-06-27T03:09:12.599Z,15
2017-06-27T03:19:22.775Z,30
2017-06-27T03:29:32.974Z,50
2017-06-27T03:39:43.160Z,75
2017-06-27T03:49:53.177Z,110
2017-06-27T04:00:03.058Z,130
2017-06-27T04:10:12.865Z,130
2017-06-27T04:20:22.765Z,160
2017-06-27T04:30:32.653Z,205
2017-06-27T04:40:42.505Z,235
2017-06-27T04:50:52.287Z,260
2017-06-27T05:01:02.015Z,300
2017-06-27T05:11:11.675Z,335
2017-06-27T05:21:21.218Z,375
2017-06-27T05:31:30.619Z,445
2017-06-27T05:41:39.902Z,580
2017-06-27T05:51:49.063Z,630
2017-06-27T06:01:58.252Z,595
2017-06-27T06:12:07.274Z,555
2017-06-27T06:22:16.402Z,675
2017-06-27T06:32:25.502Z,715
2017-06-27T06:42:34.513Z,1190
2017-06-27T06:52:43.210Z,1040
2017-06-27T07:02:51.915Z,950
2017-06-27T07:13:00.670Z,760
2017-06-27T07:23:09.471Z,920
2017-06-27T07:33:18.414Z,915
2017-06-27T07:43:27.189Z,1370
2017-06-27T07:53:35.717Z,815
2017-06-27T08:03:44.348Z,910
2017-06-27T08:13:52.938Z,1085
2017-06-27T08:24:01.556Z,1035
2017-06-27T08:34:10.044Z,1115
2017-06-27T08:44:18.402Z,1240
2017-06-27T08:54:26.748Z,1460
2017-06-27T09:04:34.989Z,1085
2017-06-27T09:14:43.206Z,960
2017-06-27T09:24:51.524Z,925
2017-06-27T09:34:59.839Z,970
2017-06-27T09:45:08.363Z,1020
2017-06-27T09:55:16.364Z,1015
2017-06-27T10:05:24.573Z,995
2017-06-27T10:15:32.782Z,1210
2017-06-27T10:25:40.924Z,1370
2017-06-27T10:35:48.979Z,1455
2017-06-27T10:45:56.994Z,1240
2017-06-27T10:56:04.994Z,1000
2017-06-27T11:06:13.066Z,1000
2017-06-27T11:16:21.175Z,1020
2017-06-27T11:26:29.203Z,1230
2017-06-27T11:36:37.193Z,1315
2017-06-27T11:46:45.164Z,1160
2017-06-27T11:56:53.121Z,1135
2017-06-27T12:07:01.050Z,1155
2017-06-27T12:17:08.993Z,1055
2017-06-27T12:27:16.911Z,920
2017-06-27T12:37:24.952Z,805
2017-06-27T12:47:32.992Z,795
2017-06-27T12:57:41.113Z,970
2017-06-27T13:07:49.190Z,760
2017-06-27T13:17:57.491Z,695
2017-06-27T13:28:05.883Z,685
2017-06-27T13:38:14.309Z,740
2017-06-27T13:48:22.710Z,870
2017-06-27T13:58:31.112Z,805
2017-06-27T14:08:39.389Z,700
2017-06-27T14:18:47.666Z,720
2017-06-27T14:28:55.954Z,730
2017-06-27T14:39:04.173Z,635
2017-06-27T14:49:12.423Z,530
2017-06-27T14:59:20.705Z,760
2017-06-27T15:09:28.953Z,470
2017-06-27T15:19:37.301Z,500
2017-06-27T15:29:45.659Z,435
2017-06-27T15:39:54.076Z,305
2017-06-27T15:50:02.612Z,185
2017-06-27T16:00:11.235Z,200
2017-06-27T16:10:19.859Z,245
2017-06-27T16:20:28.590Z,235
2017-06-27T16:30:37.338Z,190
2017-06-27T16:40:46.175Z,140
2017-06-27T16:50:54.910Z,135
2017-06-27T17:01:03.675Z,150
2017-06-27T17:11:12.536Z,130
2017-06-27T17:21:21.448Z,115
2017-06-27T17:31:30.331Z,75
2017-06-27T17:41:39.194Z,70
2017-06-27T17:51:48.061Z,90
2017-06-27T18:01:56.979Z,120
2017-06-27T18:12:05.910Z,70
2017-06-27T18:22:14.812Z,45
2017-06-27T18:32:23.728Z,30
2017-06-27T18:42:32.715Z,25
2017-06-27T18:52:41.700Z,20
2017-06-27T19:02:50.752Z,20
2017-06-27T19:12:59.829Z,10
2017-06-27T19:23:08.961Z,5
2017-06-27T19:33:18.148Z,5
2017-06-27T19:43:27.379Z,5
2017-06-27T19:53:36.625Z,5
2017-06-27T20:03:45.877Z,0
2017-06-27T20:13:55.159Z,0
2017-06-27T20:24:04.382Z,0
2017-06-27T20:34:13.661Z,0
2017-06-27T20:44:22.950Z,0
2017-06-27T20:54:32.178Z,0
2017-06-27T21:04:41.417Z,0
2017-06-27T21:14:50.597Z,0
2017-06-27T21:24:59.837Z,0
2017-06-27T21:35:09.046Z,0
2017-06-27T21:45:18.205Z,0
2017-06-27T21:55:27.416Z,0
2017-06-27T22:05:36.612Z,0
2017-06-27T22:15:45.908Z,0
2017-06-27T22:25:54.997Z,0
2017-06-27T22:36:04.161Z,0
2017-06-27T22:46:13.364Z,0
2017-06-27T22:56:22.512Z,0
2017-06-27T23:06:31.696Z,0
2017-06-27T23:16:40.888Z,0
2017-06-27T23:26:50.102Z,0
2017-06-27T23:36:59.312Z,0
2017-06-27T23:47:08.485Z,0
2017-06-27T23:57:17.652Z,0
